Time;durP1;ratioP1;P1;durP2;ratioP2;P2;SDS_P1;SDS_P2;PMS_P1;PMS_P2;Temp;Humidity;BMP_temperature;BMP_pressure;BME280_temperature;BME280_humidity;BME280_pressure;Samples;Min_cycle;Max_cycle;Signal;HPM_P1;HPM_P2
2022/01/07 00:01:34;;;;;;;;;;;3.20;99.90;;;;;;4998661;28;20284;-76
2022/01/07 00:04:00;;;;;;;;;;;3.20;99.90;;;;;;4998105;28;20302;-76
2022/01/07 00:06:31;;;;;;;;;;;3.20;99.90;;;;;;4998024;28;20016;-76
2022/01/07 00:08:57;;;;;;;;;;;3.20;99.90;;;;;;5047611;28;19921;-77
2022/01/07 00:11:25;;;;;;;;;;;3.20;99.90;;;;;;4998627;28;19929;-76
2022/01/07 00:13:51;;;;;;;;;;;3.20;99.90;;;;;;5031431;28;20409;-75
2022/01/07 00:16:16;;;;;;;;;;;3.20;99.90;;;;;;5031354;28;20016;-77
2022/01/07 00:18:43;;;;;;;;;;;3.20;99.90;;;;;;5030121;28;20305;-77
2022/01/07 00:21:10;;;;;;;;;;;3.20;99.90;;;;;;4998878;28;20406;-77
2022/01/07 00:23:38;;;;;;;;;;;3.20;99.90;;;;;;4999399;28;19921;-76
2022/01/07 00:26:04;;;;;;;;;;;3.20;99.90;;;;;;5032333;28;20365;-74
2022/01/07 00:28:32;;;;;;;;;;;3.20;99.90;;;;;;4998161;28;20003;-74
2022/01/07 00:31:01;;;;;;;;;;;3.10;99.90;;;;;;5031082;28;19952;-75
2022/01/07 00:33:27;;;;;;;;;;;3.10;99.90;;;;;;5027866;28;19929;-74
2022/01/07 00:35:59;;;;;;;;;;;3.20;99.90;;;;;;5030821;28;19921;-75
2022/01/07 00:38:30;;;;;;;;;;;3.00;99.90;;;;;;5014451;28;20008;-75
2022/01/07 00:40:56;;;;;;;;;;;3.10;99.90;;;;;;5031876;28;19921;-74
2022/01/07 00:43:21;;;;;;;;;;;3.00;99.90;;;;;;5033955;28;19932;-74
2022/01/07 00:45:50;;;;;;;;;;;2.90;99.90;;;;;;5001959;28;19921;-74
2022/01/07 00:48:15;;;;;;;;;;;2.90;99.90;;;;;;5035089;28;20281;-74
2022/01/07 00:50:41;;;;;;;;;;;2.90;99.90;;;;;;5034662;28;19928;-75
2022/01/07 00:53:12;;;;;;;;;;;2.90;99.90;;;;;;5035882;28;19928;-75
2022/01/07 00:55:37;;;;;;;;;;;2.90;99.90;;;;;;5037726;28;20233;-74
2022/01/07 00:58:03;;;;;;;;;;;2.80;99.90;;;;;;5035992;28;19952;-75
2022/01/07 01:00:29;;;;;;;;;;;2.80;99.90;;;;;;5051691;28;20428;-75
2022/01/07 01:02:59;;;;;;;;;;;2.70;99.90;;;;;;5035170;28;20376;-75
2022/01/07 01:05:25;;;;;;;;;;;2.70;99.90;;;;;;5034441;28;19921;-74
2022/01/07 01:07:50;;;;;;;;;;;2.60;99.90;;;;;;5033749;28;19921;-74
2022/01/07 01:10:21;;;;;;;;;;;2.70;99.90;;;;;;5002491;28;19928;-74
2022/01/07 01:12:47;;;;;;;;;;;2.70;99.90;;;;;;5001354;28;19925;-75
2022/01/07 01:15:14;;;;;;;;;;;2.70;99.90;;;;;;5001440;28;20292;-75
2022/01/07 01:17:39;;;;;;;;;;;2.60;99.90;;;;;;5000838;28;19932;-75
2022/01/07 01:20:07;;;;;;;;;;;2.60;99.90;;;;;;5033570;28;19921;-74
2022/01/07 01:22:33;;;;;;;;;;;2.60;99.90;;;;;;5001330;28;19921;-75
2022/01/07 01:24:58;;;;;;;;;;;2.60;99.90;;;;;;5000607;28;20359;-76
2022/01/07 01:27:24;;;;;;;;;;;2.50;99.90;;;;;;5033050;28;19968;-75
2022/01/07 01:29:50;;;;;;;;;;;2.50;99.90;;;;;;5033675;28;19968;-77
2022/01/07 01:32:16;;;;;;;;;;;2.40;99.90;;;;;;5017041;28;19921;-77
2022/01/07 01:34:42;;;;;;;;;;;2.50;99.90;;;;;;5000841;28;20344;-78
2022/01/07 01:37:08;;;;;;;;;;;2.40;99.90;;;;;;5000716;28;20439;-77
2022/01/07 01:39:36;;;;;;;;;;;2.40;99.90;;;;;;5050278;28;19925;-78
2022/01/07 01:42:01;;;;;;;;;;;2.40;99.90;;;;;;5000585;28;19987;-77
2022/01/07 01:44:27;;;;;;;;;;;2.40;99.90;;;;;;5000654;28;20366;-77
2022/01/07 01:46:53;;;;;;;;;;;2.40;99.90;;;;;;5000321;28;19921;-77
2022/01/07 01:49:18;;;;;;;;;;;2.30;99.90;;;;;;5034553;28;19937;-77
2022/01/07 01:51:47;;;;;;;;;;;2.30;99.90;;;;;;5002160;28;20024;-77
2022/01/07 01:54:13;;;;;;;;;;;2.30;99.90;;;;;;5002777;28;19926;-77
2022/01/07 01:56:38;;;;;;;;;;;2.30;99.90;;;;;;5035137;28;19984;-77
2022/01/07 01:59:04;;;;;;;;;;;2.30;99.90;;;;;;5003295;28;19975;-77
2022/01/07 02:01:30;;;;;;;;;;;2.30;99.90;;;;;;5002996;28;20427;-77
2022/01/07 02:03:58;;;;;;;;;;;2.40;99.90;;;;;;5033659;28;19936;-77
2022/01/07 02:06:24;;;;;;;;;;;2.30;99.90;;;;;;5001838;28;19925;-77
2022/01/07 02:08:50;;;;;;;;;;;2.30;99.90;;;;;;5035429;28;19971;-77
2022/01/07 02:11:15;;;;;;;;;;;2.30;99.90;;;;;;5035080;28;19921;-77
2022/01/07 02:13:41;;;;;;;;;;;2.30;99.90;;;;;;5035142;28;19979;-77
2022/01/07 02:16:06;;;;;;;;;;;2.30;99.90;;;;;;5002897;28;19947;-77
2022/01/07 02:18:32;;;;;;;;;;;2.30;99.90;;;;;;5002454;28;19921;-77
2022/01/07 02:20:58;;;;;;;;;;;2.30;99.90;;;;;;5001920;28;20356;-77
2022/01/07 02:23:23;;;;;;;;;;;2.30;99.90;;;;;;5001079;28;19921;-77
2022/01/07 02:25:49;;;;;;;;;;;2.20;99.90;;;;;;5001080;28;19921;-77
2022/01/07 02:28:14;;;;;;;;;;;2.20;99.90;;;;;;5034394;28;19921;-77
2022/01/07 02:30:40;;;;;;;;;;;2.20;99.90;;;;;;5034375;28;20023;-77
2022/01/07 02:33:06;;;;;;;;;;;2.20;99.90;;;;;;5034558;28;19925;-77
2022/01/07 02:35:33;;;;;;;;;;;2.20;99.90;;;;;;5001455;28;19921;-77
2022/01/07 02:37:59;;;;;;;;;;;2.20;99.90;;;;;;5033972;28;19928;-78
2022/01/07 02:40:25;;;;;;;;;;;2.20;99.90;;;;;;5033927;28;19921;-77
2022/01/07 02:42:51;;;;;;;;;;;2.20;99.90;;;;;;5034717;28;19932;-77
2022/01/07 02:45:16;;;;;;;;;;;2.20;99.90;;;;;;5017394;28;20316;-75
2022/01/07 02:47:57;;;;;;;;;;;2.20;99.90;;;;;;5000253;28;19929;-75
2022/01/07 02:50:25;;;;;;;;;;;2.20;99.90;;;;;;5045422;28;20446;-75
2022/01/07 02:52:51;;;;;;;;;;;2.30;99.90;;;;;;5016775;28;19925;-75
2022/01/07 02:55:17;;;;;;;;;;;2.20;99.90;;;;;;5033163;28;19921;-75
2022/01/07 02:57:42;;;;;;;;;;;2.20;99.90;;;;;;5032981;28;19921;-75
2022/01/07 03:00:09;;;;;;;;;;;2.20;99.90;;;;;;5000189;28;19921;-75
2022/01/07 03:02:34;;;;;;;;;;;2.20;99.90;;;;;;5000152;28;19932;-75
2022/01/07 03:05:00;;;;;;;;;;;2.30;99.90;;;;;;5048861;28;19932;-75
2022/01/07 03:07:26;;;;;;;;;;;2.30;99.90;;;;;;5033164;28;19921;-75
2022/01/07 03:09:51;;;;;;;;;;;2.30;99.90;;;;;;5033175;28;19943;-75
2022/01/07 03:12:17;;;;;;;;;;;2.30;99.90;;;;;;5032476;28;19921;-75
2022/01/07 03:14:42;;;;;;;;;;;2.30;99.90;;;;;;4999048;28;19929;-75
2022/01/07 03:17:08;;;;;;;;;;;2.30;99.90;;;;;;4998881;28;19928;-75
2022/01/07 03:19:34;;;;;;;;;;;2.40;99.90;;;;;;4998685;28;19932;-75
2022/01/07 03:22:00;;;;;;;;;;;2.30;99.90;;;;;;5031836;28;19979;-75
2022/01/07 03:24:25;;;;;;;;;;;2.40;99.90;;;;;;4999104;28;19921;-75
2022/01/07 03:26:51;;;;;;;;;;;2.40;99.90;;;;;;5068528;23;19977;-75
2022/01/07 03:29:18;;;;;;;;;;;2.30;99.90;;;;;;5044139;28;21285;-75
2022/01/07 03:31:43;;;;;;;;;;;2.30;99.90;;;;;;5051388;28;20414;-75
2022/01/07 03:34:09;;;;;;;;;;;2.40;99.90;;;;;;5070069;28;19993;-75
2022/01/07 03:36:34;;;;;;;;;;;2.40;99.90;;;;;;5062270;28;19927;-75
2022/01/07 03:39:01;;;;;;;;;;;2.30;99.90;;;;;;5051945;28;19921;-75
2022/01/07 03:41:27;;;;;;;;;;;2.40;99.90;;;;;;5045817;28;19921;-75
2022/01/07 03:43:52;;;;;;;;;;;2.40;99.90;;;;;;5034851;28;20404;-75
2022/01/07 03:46:18;;;;;;;;;;;2.40;99.90;;;;;;5031223;28;20403;-75
2022/01/07 03:48:43;;;;;;;;;;;2.40;99.90;;;;;;5048719;28;19921;-75
2022/01/07 03:51:09;;;;;;;;;;;2.40;99.90;;;;;;5049524;28;20440;-75
2022/01/07 03:53:34;;;;;;;;;;;2.40;99.90;;;;;;5050960;28;19928;-75
2022/01/07 03:56:00;;;;;;;;;;;2.40;99.90;;;;;;5050591;28;19921;-75
2022/01/07 03:58:25;;;;;;;;;;;2.40;99.90;;;;;;5031458;28;19921;-75
2022/01/07 04:00:51;;;;;;;;;;;2.40;99.90;;;;;;5014601;28;20016;-75
2022/01/07 04:03:17;;;;;;;;;;;2.40;99.90;;;;;;5047498;28;19920;-75
2022/01/07 04:05:43;;;;;;;;;;;2.40;99.90;;;;;;5030519;28;19922;-75
2022/01/07 04:08:09;;;;;;;;;;;2.40;99.90;;;;;;5014620;28;19928;-75
2022/01/07 04:10:35;;;;;;;;;;;2.40;99.90;;;;;;5030875;28;19979;-75
2022/01/07 04:13:00;;;;;;;;;;;2.40;99.90;;;;;;5038674;28;19959;-75
2022/01/07 04:15:26;;;;;;;;;;;2.40;99.90;;;;;;5034112;28;20363;-75
2022/01/07 04:17:52;;;;;;;;;;;2.50;99.90;;;;;;5040238;28;20343;-75
2022/01/07 04:20:28;;;;;;;;;;;2.50;99.90;;;;;;5050725;28;19920;-75
2022/01/07 04:22:54;;;;;;;;;;;2.50;99.90;;;;;;5050507;28;19921;-75
2022/01/07 04:25:21;;;;;;;;;;;2.50;99.90;;;;;;5050952;28;19927;-75
2022/01/07 04:27:47;;;;;;;;;;;2.50;99.90;;;;;;5034877;28;19951;-76
2022/01/07 04:30:13;;;;;;;;;;;2.50;99.90;;;;;;5030987;28;19921;-75
2022/01/07 04:32:39;;;;;;;;;;;2.40;99.90;;;;;;5035376;28;19932;-75
2022/01/07 04:35:05;;;;;;;;;;;2.40;99.90;;;;;;5031091;28;20019;-75
2022/01/07 04:37:31;;;;;;;;;;;2.40;99.90;;;;;;5030736;28;20193;-75
2022/01/07 04:39:56;;;;;;;;;;;2.40;99.90;;;;;;5031048;28;19967;-75
2022/01/07 04:42:21;;;;;;;;;;;2.40;99.90;;;;;;5047753;28;19974;-75
2022/01/07 04:44:47;;;;;;;;;;;2.40;99.90;;;;;;5030700;28;19925;-75
2022/01/07 04:47:12;;;;;;;;;;;2.40;99.90;;;;;;5045483;28;19932;-75
2022/01/07 04:49:38;;;;;;;;;;;2.40;99.90;;;;;;5050362;28;19931;-75
2022/01/07 04:52:04;;;;;;;;;;;2.40;99.90;;;;;;5050334;28;19925;-75
2022/01/07 04:54:29;;;;;;;;;;;2.30;99.90;;;;;;5044790;28;19956;-75
2022/01/07 04:56:55;;;;;;;;;;;2.40;99.90;;;;;;5016917;28;19964;-75
2022/01/07 04:59:20;;;;;;;;;;;2.40;99.90;;;;;;5050360;28;19921;-75
2022/01/07 05:01:47;;;;;;;;;;;2.30;99.90;;;;;;5034559;28;19921;-75
2022/01/07 05:04:13;;;;;;;;;;;2.30;99.90;;;;;;5050418;28;19924;-75
2022/01/07 05:06:45;;;;;;;;;;;2.30;99.90;;;;;;5033651;28;19991;-75
2022/01/07 05:09:11;;;;;;;;;;;2.30;99.90;;;;;;5050588;28;20331;-75
2022/01/07 05:11:37;;;;;;;;;;;2.30;99.90;;;;;;5049800;28;19925;-75
2022/01/07 05:14:02;;;;;;;;;;;2.30;99.90;;;;;;5033452;28;19932;-75
2022/01/07 05:16:28;;;;;;;;;;;2.30;99.90;;;;;;5014050;28;19927;-75
2022/01/07 05:18:54;;;;;;;;;;;2.30;99.90;;;;;;5014062;28;19975;-75
2022/01/07 05:21:20;;;;;;;;;;;2.40;99.90;;;;;;5036125;28;19960;-75
2022/01/07 05:23:45;;;;;;;;;;;2.30;99.90;;;;;;5019881;28;19928;-75
2022/01/07 05:26:11;;;;;;;;;;;2.30;99.90;;;;;;5030407;28;20281;-75
2022/01/07 05:28:36;;;;;;;;;;;2.40;99.90;;;;;;5037374;28;19921;-75
2022/01/07 05:31:03;;;;;;;;;;;2.40;99.90;;;;;;5033757;28;20483;-75
2022/01/07 05:33:28;;;;;;;;;;;2.40;99.90;;;;;;5033613;28;20381;-75
2022/01/07 05:35:54;;;;;;;;;;;2.40;99.90;;;;;;5017165;28;19921;-75
2022/01/07 05:38:19;;;;;;;;;;;2.50;99.90;;;;;;5033877;28;20062;-75
2022/01/07 05:40:45;;;;;;;;;;;2.40;99.90;;;;;;5053665;28;19967;-75
2022/01/07 05:43:10;;;;;;;;;;;2.50;99.90;;;;;;5021772;28;20287;-75
2022/01/07 05:45:36;;;;;;;;;;;2.50;99.90;;;;;;5018305;28;19995;-75
2022/01/07 05:48:03;;;;;;;;;;;2.50;99.90;;;;;;5033496;28;19925;-75
2022/01/07 05:50:28;;;;;;;;;;;2.50;99.90;;;;;;5038258;28;19925;-75
2022/01/07 05:52:54;;;;;;;;;;;2.50;99.90;;;;;;5040870;28;19929;-76
2022/01/07 05:55:19;;;;;;;;;;;2.50;99.90;;;;;;5049664;28;19920;-75
2022/01/07 05:57:45;;;;;;;;;;;2.50;99.90;;;;;;5038743;28;19925;-75
2022/01/07 06:00:11;;;;;;;;;;;2.60;99.90;;;;;;5033252;28;20004;-75
2022/01/07 06:02:36;;;;;;;;;;;2.60;99.90;;;;;;5042609;28;20422;-75
2022/01/07 06:05:02;;;;;;;;;;;2.60;99.90;;;;;;5025903;28;19948;-75
2022/01/07 06:07:28;;;;;;;;;;;2.60;99.90;;;;;;5016811;28;20353;-75
2022/01/07 06:09:53;;;;;;;;;;;2.60;99.90;;;;;;5036117;28;19924;-75
2022/01/07 06:12:18;;;;;;;;;;;2.60;99.90;;;;;;5022829;28;19925;-75
2022/01/07 06:14:44;;;;;;;;;;;2.60;99.90;;;;;;5033071;28;19925;-75
2022/01/07 06:17:11;;;;;;;;;;;2.70;99.90;;;;;;5034145;28;19921;-75
2022/01/07 06:19:36;;;;;;;;;;;2.70;99.90;;;;;;5019614;28;20421;-75
2022/01/07 06:22:02;;;;;;;;;;;2.70;99.90;;;;;;5032879;28;19964;-75
2022/01/07 06:24:28;;;;;;;;;;;2.70;99.90;;;;;;5017256;28;19928;-75
2022/01/07 06:26:53;;;;;;;;;;;2.70;99.90;;;;;;5049649;28;19927;-75
2022/01/07 06:29:19;;;;;;;;;;;2.70;99.90;;;;;;5037714;28;19921;-75
2022/01/07 06:31:44;;;;;;;;;;;2.70;99.90;;;;;;5032720;28;20340;-76
2022/01/07 06:34:09;;;;;;;;;;;2.70;99.90;;;;;;5036348;28;19920;-76
2022/01/07 06:36:35;;;;;;;;;;;2.70;99.90;;;;;;5052434;28;19921;-75
2022/01/07 06:39:00;;;;;;;;;;;2.70;99.90;;;;;;5037104;28;20361;-76
2022/01/07 06:41:26;;;;;;;;;;;2.70;99.90;;;;;;5036638;28;19923;-76
2022/01/07 06:43:51;;;;;;;;;;;2.70;99.90;;;;;;5051641;28;20158;-76
2022/01/07 06:46:17;;;;;;;;;;;2.70;99.90;;;;;;5052215;28;20415;-75
2022/01/07 06:48:43;;;;;;;;;;;2.70;99.90;;;;;;5042331;28;19925;-75
2022/01/07 06:51:09;;;;;;;;;;;2.70;99.90;;;;;;5015910;28;19976;-75
2022/01/07 06:53:34;;;;;;;;;;;2.70;99.90;;;;;;5048994;28;19968;-75
2022/01/07 06:56:00;;;;;;;;;;;2.70;99.90;;;;;;5035115;28;20440;-75
2022/01/07 06:58:25;;;;;;;;;;;2.70;99.90;;;;;;5029093;28;19921;-75
2022/01/07 07:00:51;;;;;;;;;;;2.80;99.90;;;;;;5034447;28;19939;-75
2022/01/07 07:03:17;;;;;;;;;;;2.80;99.90;;;;;;5051886;28;19920;-75
2022/01/07 07:05:42;;;;;;;;;;;2.80;99.90;;;;;;5052178;28;20392;-75
2022/01/07 07:08:08;;;;;;;;;;;2.80;99.90;;;;;;5036857;28;19963;-75
2022/01/07 07:10:33;;;;;;;;;;;2.80;99.90;;;;;;5050345;28;19939;-76
2022/01/07 07:12:59;;;;;;;;;;;2.80;99.90;;;;;;5050542;28;19921;-75
2022/01/07 07:15:24;;;;;;;;;;;2.90;99.90;;;;;;5051836;28;19920;-75
2022/01/07 07:17:50;;;;;;;;;;;2.90;99.90;;;;;;5035071;28;20018;-75
2022/01/07 07:20:15;;;;;;;;;;;2.90;99.90;;;;;;5051684;28;19920;-75
2022/01/07 07:22:41;;;;;;;;;;;3.00;99.90;;;;;;5051507;28;20338;-75
2022/01/07 07:25:07;;;;;;;;;;;3.00;99.90;;;;;;5041180;28;20332;-75
2022/01/07 07:27:32;;;;;;;;;;;3.00;99.90;;;;;;5051432;28;19921;-75
2022/01/07 07:29:58;;;;;;;;;;;3.00;99.90;;;;;;5051758;28;19920;-75
2022/01/07 07:32:27;;;;;;;;;;;3.10;99.90;;;;;;5034523;28;19932;-75
2022/01/07 07:34:59;;;;;;;;;;;3.10;99.90;;;;;;5050853;28;19921;-76
2022/01/07 07:37:25;;;;;;;;;;;3.10;99.90;;;;;;5036242;28;19996;-76
2022/01/07 07:39:51;;;;;;;;;;;3.10;99.90;;;;;;5020466;28;19943;-76
2022/01/07 07:42:16;;;;;;;;;;;3.20;99.90;;;;;;5031394;28;20408;-75
2022/01/07 07:44:42;;;;;;;;;;;3.20;99.90;;;;;;5031188;28;19921;-75
2022/01/07 07:47:07;;;;;;;;;;;3.30;99.90;;;;;;5031258;28;20450;-75
2022/01/07 07:49:33;;;;;;;;;;;3.30;99.90;;;;;;5032249;28;19925;-75
2022/01/07 07:51:58;;;;;;;;;;;3.30;99.90;;;;;;5025735;28;19925;-75
2022/01/07 07:54:24;;;;;;;;;;;3.40;99.90;;;;;;5051189;28;20296;-75
2022/01/07 07:56:49;;;;;;;;;;;3.40;99.90;;;;;;5051017;28;19921;-75
2022/01/07 07:59:14;;;;;;;;;;;3.50;99.90;;;;;;5051063;28;20011;-75
2022/01/07 08:01:41;;;;;;;;;;;3.50;99.90;;;;;;5051394;28;19921;-75
2022/01/07 08:04:07;;;;;;;;;;;3.50;99.90;;;;;;5050019;28;19925;-75
2022/01/07 08:06:33;;;;;;;;;;;3.50;99.90;;;;;;5019950;28;20408;-75
2022/01/07 08:08:58;;;;;;;;;;;3.60;99.90;;;;;;5031007;28;19925;-75
2022/01/07 08:11:28;;;;;;;;;;;3.60;99.90;;;;;;5015558;28;19929;-75
2022/01/07 08:16:37;;;;;;;;;;;3.60;99.90;;;;;;5050894;28;19944;-75
2022/01/07 08:19:04;;;;;;;;;;;3.50;99.90;;;;;;5031905;28;20388;-75
2022/01/07 08:21:29;;;;;;;;;;;3.50;99.90;;;;;;5047391;28;19921;-76
2022/01/07 08:23:55;;;;;;;;;;;3.50;99.90;;;;;;5020608;28;19928;-74
2022/01/07 08:26:22;;;;;;;;;;;3.50;99.90;;;;;;5040055;28;19924;-77
2022/01/07 08:28:55;;;;;;;;;;;3.50;99.90;;;;;;5046198;28;20300;-76
2022/01/07 08:36:36;;;;;;;;;;;3.60;99.90;;;;;;5032750;28;19928;-75
2022/01/07 08:39:04;;;;;;;;;;;3.60;99.90;;;;;;5050038;28;20474;-77
2022/01/07 08:41:30;;;;;;;;;;;3.60;99.90;;;;;;5066424;28;20361;-75
2022/01/07 08:43:56;;;;;;;;;;;3.70;99.90;;;;;;5028428;28;19921;-75
2022/01/07 08:46:22;;;;;;;;;;;3.80;99.90;;;;;;5030463;28;19971;-75
2022/01/07 08:48:48;;;;;;;;;;;3.80;99.90;;;;;;5051394;28;20336;-75
2022/01/07 08:51:13;;;;;;;;;;;3.90;99.90;;;;;;5051377;28;20341;-75
2022/01/07 08:53:39;;;;;;;;;;;4.00;99.90;;;;;;5050648;28;20032;-75
2022/01/07 08:56:05;;;;;;;;;;;4.10;99.90;;;;;;5049184;28;20281;-75
2022/01/07 08:58:31;;;;;;;;;;;4.10;99.90;;;;;;5035068;28;19921;-75
2022/01/07 09:00:56;;;;;;;;;;;4.20;99.90;;;;;;5033297;28;19928;-75
2022/01/07 09:03:23;;;;;;;;;;;4.20;99.90;;;;;;5044574;28;20377;-75
2022/01/07 09:05:48;;;;;;;;;;;4.20;99.90;;;;;;5033032;28;20319;-75
2022/01/07 09:08:14;;;;;;;;;;;4.30;99.90;;;;;;5016390;28;19928;-75
2022/01/07 09:10:39;;;;;;;;;;;4.30;99.90;;;;;;5044392;28;20377;-75
2022/01/07 09:13:05;;;;;;;;;;;4.30;99.90;;;;;;5034172;28;19921;-75
2022/01/07 09:15:31;;;;;;;;;;;4.40;99.90;;;;;;5021876;28;19971;-75
2022/01/07 09:17:56;;;;;;;;;;;4.40;99.90;;;;;;5054383;28;20380;-75
2022/01/07 09:20:22;;;;;;;;;;;4.40;99.90;;;;;;5044933;28;19968;-77
2022/01/07 09:22:48;;;;;;;;;;;4.50;99.90;;;;;;5035150;28;20039;-75
2022/01/07 09:25:15;;;;;;;;;;;4.50;99.90;;;;;;5037764;28;19955;-74
2022/01/07 09:27:42;;;;;;;;;;;4.60;99.90;;;;;;5069842;23;19925;-75
2022/01/07 09:30:10;;;;;;;;;;;4.60;99.90;;;;;;5053043;28;19974;-75
2022/01/07 09:32:36;;;;;;;;;;;4.60;99.90;;;;;;5033470;28;19925;-75
2022/01/07 09:35:02;;;;;;;;;;;4.50;99.90;;;;;;5036243;28;19944;-75
2022/01/07 09:37:28;;;;;;;;;;;4.60;99.90;;;;;;5022800;28;19929;-75
2022/01/07 09:39:54;;;;;;;;;;;4.50;99.90;;;;;;5017114;28;19921;-75
2022/01/07 09:42:19;;;;;;;;;;;4.50;99.90;;;;;;5025061;28;19925;-75
2022/01/07 09:44:45;;;;;;;;;;;4.60;99.90;;;;;;5017570;28;19921;-75
2022/01/07 09:47:12;;;;;;;;;;;4.50;99.90;;;;;;5016260;28;20381;-75
2022/01/07 09:49:41;;;;;;;;;;;4.60;99.90;;;;;;5019215;28;19921;-75
2022/01/07 09:52:08;;;;;;;;;;;4.60;99.90;;;;;;5019246;28;20376;-75
2022/01/07 09:54:34;;;;;;;;;;;4.70;99.90;;;;;;5016503;28;19932;-75
2022/01/07 09:57:00;;;;;;;;;;;4.80;99.90;;;;;;5018125;28;19991;-77
2022/01/07 09:59:26;;;;;;;;;;;4.90;99.90;;;;;;5033055;28;19921;-77
2022/01/07 10:01:55;;;;;;;;;;;4.80;99.90;;;;;;5021930;28;19928;-76
2022/01/07 10:04:34;;;;;;;;;;;4.80;99.90;;;;;;5031846;28;20003;-76
2022/01/07 10:07:12;;;;;;;;;;;4.80;99.90;;;;;;5016669;28;19921;-76
2022/01/07 10:09:41;;;;;;;;;;;4.80;99.90;;;;;;5033880;28;19920;-76
2022/01/07 10:12:07;;;;;;;;;;;4.90;99.90;;;;;;5015965;28;19944;-76
2022/01/07 10:14:34;;;;;;;;;;;4.80;99.90;;;;;;5016672;28;19925;-75
2022/01/07 10:17:02;;;;;;;;;;;4.60;99.90;;;;;;5016315;28;20051;-75
2022/01/07 10:19:38;;;;;;;;;;;4.50;99.90;;;;;;5016782;28;19921;-76
2022/01/07 10:22:06;;;;;;;;;;;4.40;99.90;;;;;;5016102;28;20002;-76
2022/01/07 10:24:32;;;;;;;;;;;4.40;99.90;;;;;;5031787;28;20011;-76
2022/01/07 10:27:11;;;;;;;;;;;4.40;99.90;;;;;;5015433;28;19928;-76
2022/01/07 10:29:38;;;;;;;;;;;4.40;99.90;;;;;;5030701;28;20395;-75
2022/01/07 10:32:23;;;;;;;;;;;4.50;99.90;;;;;;5015345;28;20347;-76
2022/01/07 10:35:10;;;;;;;;;;;4.50;99.90;;;;;;5032115;28;19925;-76
2022/01/07 10:37:36;;;;;;;;;;;4.50;99.90;;;;;;5031320;28;19921;-75
2022/01/07 10:40:21;;;;;;;;;;;4.50;99.90;;;;;;5016273;28;19925;-76
2022/01/07 10:42:47;;;;;;;;;;;4.50;99.90;;;;;;5024742;28;19921;-76
2022/01/07 10:45:13;;;;;;;;;;;4.50;99.90;;;;;;5015344;28;20005;-76
2022/01/07 10:47:38;;;;;;;;;;;4.50;99.90;;;;;;5016112;28;20046;-76
2022/01/07 10:50:17;;;;;;;;;;;4.60;99.90;;;;;;5015816;28;19935;-74
2022/01/07 10:52:46;;;;;;;;;;;4.60;99.90;;;;;;5015162;28;19925;-77
2022/01/07 10:55:18;;;;;;;;;;;4.60;99.90;;;;;;5017991;28;19921;-75
2022/01/07 10:57:45;;;;;;;;;;;4.70;99.90;;;;;;5017063;28;19933;-75
2022/01/07 11:00:18;;;;;;;;;;;4.70;99.90;;;;;;5028559;28;19922;-75
2022/01/07 11:02:44;;;;;;;;;;;4.80;99.90;;;;;;5030759;28;19920;-75
2022/01/07 11:05:09;;;;;;;;;;;4.80;99.90;;;;;;5023060;28;19932;-76
2022/01/07 11:07:35;;;;;;;;;;;4.90;99.90;;;;;;5016748;28;19971;-76
2022/01/07 11:10:05;;;;;;;;;;;4.90;99.90;;;;;;5015027;28;19921;-76
2022/01/07 11:12:31;;;;;;;;;;;4.90;99.90;;;;;;5030575;28;19933;-76
2022/01/07 11:15:00;;;;;;;;;;;4.80;99.90;;;;;;5031947;28;19927;-77
2022/01/07 11:17:31;;;;;;;;;;;4.80;99.90;;;;;;5032528;28;20579;-76
2022/01/07 11:20:04;;;;;;;;;;;4.70;99.90;;;;;;5016744;28;20377;-77
2022/01/07 11:22:30;;;;;;;;;;;4.70;99.90;;;;;;5015700;28;19979;-77
2022/01/07 11:25:06;;;;;;;;;;;4.50;99.90;;;;;;5014926;28;19964;-78
2022/01/07 11:27:50;;;;;;;;;;;4.50;99.90;;;;;;5015726;28;19921;-77
2022/01/07 11:30:18;;;;;;;;;;;4.40;99.90;;;;;;5015868;28;19921;-76
2022/01/07 11:32:49;;;;;;;;;;;4.40;99.90;;;;;;5015711;28;19925;-76
2022/01/07 11:35:18;;;;;;;;;;;4.30;99.90;;;;;;5015538;28;19921;-76
2022/01/07 11:37:47;;;;;;;;;;;4.20;99.90;;;;;;5032445;28;19929;-76
2022/01/07 11:40:29;;;;;;;;;;;4.20;99.90;;;;;;5014830;28;19922;-76
2022/01/07 11:42:59;;;;;;;;;;;4.10;99.90;;;;;;5030340;28;19921;-76
2022/01/07 11:45:28;;;;;;;;;;;4.00;99.90;;;;;;5015797;28;19929;-76
2022/01/07 11:47:55;;;;;;;;;;;4.00;99.90;;;;;;5015804;28;19925;-77
2022/01/07 11:50:31;;;;;;;;;;;;;;;;;;;;;
2022/01/07 11:52:58;;;;;;;;;;;3.90;99.90;;;;;;5031488;28;20454;-76
2022/01/07 11:55:26;;;;;;;;;;;3.90;99.90;;;;;;5021918;28;19921;-76
2022/01/07 11:58:18;;;;;;;;;;;4.00;99.90;;;;;;5023172;28;19921;-76
2022/01/07 12:00:59;;;;;;;;;;;3.90;99.90;;;;;;5031767;28;19921;-76
2022/01/07 12:03:45;;;;;;;;;;;3.90;99.90;;;;;;5023147;28;19925;-76
2022/01/07 12:06:17;;;;;;;;;;;3.80;99.90;;;;;;5018014;28;19927;-76
2022/01/07 12:08:58;;;;;;;;;;;3.80;99.90;;;;;;5021912;28;19972;-76
2022/01/07 12:11:28;;;;;;;;;;;3.70;99.90;;;;;;5033169;28;19936;-75
2022/01/07 12:13:57;;;;;;;;;;;3.80;99.90;;;;;;5028507;28;20452;-76
2022/01/07 12:16:24;;;;;;;;;;;3.80;99.90;;;;;;5023871;28;19921;-76
2022/01/07 12:19:01;;;;;;;;;;;3.90;99.90;;;;;;5022636;28;19928;-76
2022/01/07 12:21:27;;;;;;;;;;;3.90;99.90;;;;;;5015065;28;20293;-76
2022/01/07 12:24:07;;;;;;;;;;;3.90;99.90;;;;;;5018550;28;19921;-76
2022/01/07 12:26:36;;;;;;;;;;;4.10;99.90;;;;;;5034953;28;19928;-76
2022/01/07 12:29:02;;;;;;;;;;;4.20;99.90;;;;;;5006798;28;20258;-76
2022/01/07 12:31:35;;;;;;;;;;;4.20;99.90;;;;;;5010460;28;19925;-76
2022/01/07 12:34:00;;;;;;;;;;;4.20;99.90;;;;;;5004490;28;19972;-76
2022/01/07 12:36:26;;;;;;;;;;;4.40;99.90;;;;;;5014144;28;19956;-76
2022/01/07 12:39:03;;;;;;;;;;;4.90;99.90;;;;;;5018474;28;19921;-76
2022/01/07 12:41:31;;;;;;;;;;;5.80;99.90;;;;;;5018873;28;20300;-76
2022/01/07 12:44:06;;;;;;;;;;;6.40;99.90;;;;;;5017989;28;19924;-76
2022/01/07 12:46:32;;;;;;;;;;;6.30;99.90;;;;;;5017319;28;19921;-76
2022/01/07 12:48:58;;;;;;;;;;;6.20;99.90;;;;;;5018295;28;19967;-76
2022/01/07 12:51:23;;;;;;;;;;;6.50;99.90;;;;;;5017443;28;19975;-76
2022/01/07 12:54:03;;;;;;;;;;;7.00;99.90;;;;;;4998932;28;20365;-76
2022/01/07 12:56:30;;;;;;;;;;;7.50;99.90;;;;;;4998820;28;19925;-76
2022/01/07 12:58:57;;;;;;;;;;;7.60;99.90;;;;;;5011293;28;20012;-76
2022/01/07 13:01:30;;;;;;;;;;;7.70;99.90;;;;;;5016954;28;19928;-76
2022/01/07 13:04:09;;;;;;;;;;;7.70;99.90;;;;;;5003615;28;20385;-76
2022/01/07 13:06:38;;;;;;;;;;;7.50;99.90;;;;;;5003861;28;19971;-76
2022/01/07 13:09:06;;;;;;;;;;;7.20;99.90;;;;;;5018080;28;20447;-76
2022/01/07 13:11:34;;;;;;;;;;;7.00;99.90;;;;;;5016791;28;19948;-76
2022/01/07 13:14:07;;;;;;;;;;;6.60;99.90;;;;;;5016845;28;19961;-76
2022/01/07 13:16:33;;;;;;;;;;;6.40;99.90;;;;;;5016905;28;19972;-76
2022/01/07 13:19:09;;;;;;;;;;;6.00;99.90;;;;;;5016956;28;19979;-76
2022/01/07 13:21:39;;;;;;;;;;;5.90;99.90;;;;;;5018191;28;19921;-76
2022/01/07 13:24:08;;;;;;;;;;;5.70;99.90;;;;;;5017408;28;20419;-76
2022/01/07 13:26:34;;;;;;;;;;;5.60;99.90;;;;;;5017400;28;19929;-76
2022/01/07 13:29:13;;;;;;;;;;;5.60;99.90;;;;;;5018052;28;19921;-76
2022/01/07 13:31:40;;;;;;;;;;;5.60;99.90;;;;;;5018084;28;19983;-76
2022/01/07 13:34:05;;;;;;;;;;;5.50;99.90;;;;;;5018004;28;19929;-76
2022/01/07 13:36:46;;;;;;;;;;;5.50;99.90;;;;;;5018126;28;19921;-78
2022/01/07 13:39:15;;;;;;;;;;;5.30;99.90;;;;;;5018386;28;19928;-77
2022/01/07 13:42:16;;;;;;;;;;;5.40;99.90;;;;;;5017527;28;19921;-78
2022/01/07 13:44:51;;;;;;;;;;;5.30;99.90;;;;;;4969208;28;19988;-77
2022/01/07 13:47:30;;;;;;;;;;;5.20;99.90;;;;;;5017312;28;19921;-77
2022/01/07 13:50:14;;;;;;;;;;;5.20;99.90;;;;;;5017514;28;20003;-78
2022/01/07 13:52:45;;;;;;;;;;;5.10;99.90;;;;;;5017046;28;19929;-77
2022/01/07 13:55:45;;;;;;;;;;;5.10;99.90;;;;;;5015028;28;19921;-77
2022/01/07 13:58:18;;;;;;;;;;;5.00;99.90;;;;;;5029226;28;19921;-76
2022/01/07 14:00:47;;;;;;;;;;;4.90;99.90;;;;;;5033541;28;19925;-77
2022/01/07 14:03:14;;;;;;;;;;;4.80;99.90;;;;;;5033465;28;19967;-77
2022/01/07 14:06:02;;;;;;;;;;;4.90;99.90;;;;;;5017538;28;19943;-77
2022/01/07 14:08:28;;;;;;;;;;;4.80;99.90;;;;;;5017459;28;19928;-77
2022/01/07 14:11:09;;;;;;;;;;;4.80;99.90;;;;;;5015813;28;19925;-77
2022/01/07 14:13:35;;;;;;;;;;;4.80;99.90;;;;;;5012120;28;19929;-77
2022/01/07 14:16:01;;;;;;;;;;;4.80;99.90;;;;;;5017413;28;19971;-77
2022/01/07 14:18:29;;;;;;;;;;;4.80;99.90;;;;;;5017412;28;20396;-77
2022/01/07 14:21:00;;;;;;;;;;;4.80;99.90;;;;;;5017181;28;19921;-77
2022/01/07 14:23:27;;;;;;;;;;;4.80;99.90;;;;;;5029701;28;20012;-77
2022/01/07 14:26:15;;;;;;;;;;;4.80;99.90;;;;;;5026296;28;19925;-77
2022/01/07 14:28:44;;;;;;;;;;;4.70;99.90;;;;;;5022407;28;19921;-77
2022/01/07 14:31:18;;;;;;;;;;;4.70;99.90;;;;;;5016622;28;20016;-77
2022/01/07 14:34:00;;;;;;;;;;;4.70;99.90;;;;;;5034159;28;20262;-77
2022/01/07 14:36:26;;;;;;;;;;;4.70;99.90;;;;;;5049341;28;19928;-77
2022/01/07 14:38:54;;;;;;;;;;;4.70;99.90;;;;;;5016910;28;19921;-77
2022/01/07 14:41:21;;;;;;;;;;;4.60;99.90;;;;;;5016727;28;19921;-77
2022/01/07 14:43:50;;;;;;;;;;;4.60;99.90;;;;;;5032928;28;19921;-77